createdAt,value
2023-06-22T00:02:01.837Z,16.53
2023-06-22T00:04:32.356Z,16.53
2023-06-22T00:07:02.207Z,16.53
2023-06-22T00:09:33.726Z,16.60
2023-06-22T00:12:04.477Z,16.67
2023-06-22T00:14:35.021Z,16.67
2023-06-22T00:17:05.993Z,16.65
2023-06-22T00:19:37.731Z,16.69
2023-06-22T00:22:07.951Z,16.72
2023-06-22T00:24:38.501Z,16.77
2023-06-22T00:27:08.798Z,16.76
2023-06-22T00:29:39.269Z,16.68
2023-06-22T00:32:09.642Z,16.64
2023-06-22T00:34:40.813Z,16.59
2023-06-22T00:37:13.769Z,16.56
2023-06-22T00:39:45.557Z,16.61
2023-06-22T00:42:15.673Z,16.69
2023-06-22T00:44:47.160Z,16.70
2023-06-22T00:47:20.316Z,16.75
2023-06-22T00:49:55.476Z,16.74
2023-06-22T00:52:31.394Z,16.78
2023-06-22T00:55:04.207Z,16.57
2023-06-22T00:57:35.232Z,16.50
2023-06-22T01:00:10.106Z,16.61
2023-06-22T01:02:41.244Z,16.71
2023-06-22T01:05:12.069Z,16.77
2023-06-22T01:07:57.636Z,16.77
2023-06-22T01:10:30.329Z,16.70
2023-06-22T01:13:33.553Z,16.67
2023-06-22T01:16:13.295Z,16.70
2023-06-22T01:18:45.398Z,16.74
2023-06-22T01:21:20.562Z,16.77
2023-06-22T01:24:18.867Z,16.86
2023-06-22T01:27:08.293Z,16.76
2023-06-22T01:29:41.026Z,16.75
2023-06-22T01:32:13.558Z,16.72
2023-06-22T01:34:44.921Z,16.75
2023-06-22T01:37:16.267Z,16.79
2023-06-22T01:39:47.040Z,16.81
2023-06-22T01:42:19.524Z,16.91
2023-06-22T01:44:50.118Z,16.86
2023-06-22T01:47:21.084Z,16.85
2023-06-22T01:49:53.918Z,16.70
2023-06-22T01:52:24.445Z,16.63
2023-06-22T01:54:54.597Z,16.64
2023-06-22T01:57:25.134Z,16.51
2023-06-22T02:00:03.010Z,16.51
2023-06-22T02:03:05.502Z,16.49
2023-06-22T02:05:45.909Z,16.40
2023-06-22T02:08:25.100Z,16.33
2023-06-22T02:10:57.592Z,16.32
2023-06-22T02:13:29.103Z,16.30
2023-06-22T02:15:59.906Z,16.22
2023-06-22T02:18:30.618Z,16.18
2023-06-22T02:21:01.641Z,16.19
2023-06-22T02:23:32.214Z,16.22
2023-06-22T02:26:05.263Z,16.28
2023-06-22T02:28:35.795Z,16.33
2023-06-22T02:31:05.926Z,16.34
2023-06-22T02:33:36.567Z,16.43
2023-06-22T02:36:07.233Z,16.40
2023-06-22T02:38:38.636Z,16.37
2023-06-22T02:41:09.093Z,16.37
2023-06-22T02:43:39.608Z,16.40
2023-06-22T02:46:09.705Z,16.29
2023-06-22T02:48:40.228Z,16.17
2023-06-22T02:51:10.768Z,16.15
2023-06-22T02:53:41.492Z,16.12
2023-06-22T02:56:11.512Z,16.12
2023-06-22T02:58:42.309Z,16.11
2023-06-22T03:01:16.337Z,16.25
2023-06-22T03:03:50.392Z,16.26
2023-06-22T03:06:25.919Z,16.33
2023-06-22T03:08:58.420Z,16.35
2023-06-22T03:11:29.043Z,16.37
2023-06-22T03:14:01.391Z,16.31
2023-06-22T03:16:32.231Z,16.30
2023-06-22T03:19:03.133Z,16.36
2023-06-22T03:21:34.340Z,16.21
2023-06-22T03:24:04.941Z,16.09
2023-06-22T03:26:35.499Z,16.08
2023-06-22T03:29:06.000Z,16.11
2023-06-22T03:31:38.038Z,16.15
2023-06-22T03:34:09.592Z,16.11
2023-06-22T03:36:39.620Z,16.17
2023-06-22T03:39:10.596Z,16.17
2023-06-22T03:41:41.744Z,16.16
2023-06-22T03:44:14.680Z,16.10
2023-06-22T03:46:46.290Z,15.98
2023-06-22T03:49:16.812Z,15.96
2023-06-22T03:51:47.360Z,15.91
2023-06-22T03:54:17.805Z,15.88
2023-06-22T03:56:47.949Z,15.97
2023-06-22T03:59:18.534Z,15.95
2023-06-22T04:01:49.109Z,15.90
2023-06-22T04:04:20.862Z,15.91
2023-06-22T04:06:51.104Z,15.85
2023-06-22T04:09:21.623Z,15.96
2023-06-22T04:11:51.881Z,15.86
2023-06-22T04:14:22.432Z,15.80
2023-06-22T04:16:52.530Z,15.89
2023-06-22T04:19:22.992Z,15.91
2023-06-22T04:21:52.932Z,15.89
2023-06-22T04:24:23.388Z,15.82
2023-06-22T04:26:57.040Z,15.85
2023-06-22T04:29:30.996Z,15.77
2023-06-22T04:32:05.272Z,15.76
2023-06-22T04:34:35.799Z,15.73
2023-06-22T04:37:06.143Z,15.72
2023-06-22T04:39:36.642Z,15.80
2023-06-22T04:42:07.087Z,15.76
2023-06-22T04:44:37.661Z,15.90
2023-06-22T04:47:10.560Z,16.03
2023-06-22T04:49:42.474Z,16.17
2023-06-22T04:52:14.540Z,16.34
2023-06-22T04:54:49.959Z,16.48
2023-06-22T04:57:20.109Z,16.66
2023-06-22T04:59:50.603Z,16.74
2023-06-22T05:02:20.978Z,16.94
2023-06-22T05:04:53.556Z,17.17
2023-06-22T05:07:27.624Z,17.41
2023-06-22T05:09:58.092Z,17.74
2023-06-22T05:12:28.160Z,17.93
2023-06-22T05:14:58.407Z,18.33
2023-06-22T05:17:29.011Z,18.73
2023-06-22T05:19:59.257Z,18.98
2023-06-22T05:22:29.748Z,19.06
2023-06-22T05:24:59.770Z,19.12
2023-06-22T05:27:30.361Z,19.21
2023-06-22T05:30:00.363Z,19.27
2023-06-22T05:32:30.969Z,19.36
2023-06-22T05:35:01.085Z,19.49
2023-06-22T05:37:34.372Z,19.52
2023-06-22T05:40:04.908Z,19.53
2023-06-22T05:42:35.763Z,19.52
2023-06-22T05:45:06.364Z,19.51
2023-06-22T05:47:36.960Z,19.48
2023-06-22T05:50:12.486Z,19.44
2023-06-22T05:52:44.151Z,19.52
2023-06-22T05:55:14.217Z,19.50
2023-06-22T05:57:44.764Z,19.59
2023-06-22T06:00:15.882Z,19.60
2023-06-22T06:02:46.513Z,19.65
2023-06-22T06:05:16.722Z,19.78
2023-06-22T06:07:48.425Z,19.83
2023-06-22T06:10:20.742Z,19.90
2023-06-22T06:12:51.305Z,19.91
2023-06-22T06:15:21.467Z,19.93
2023-06-22T06:17:55.789Z,20.12
2023-06-22T06:20:28.613Z,20.18
2023-06-22T06:22:59.644Z,20.26
2023-06-22T06:25:29.634Z,20.25
2023-06-22T06:28:00.213Z,20.28
2023-06-22T06:30:30.780Z,20.28
2023-06-22T06:33:01.528Z,20.36
2023-06-22T06:35:31.968Z,20.40
2023-06-22T06:38:02.878Z,20.36
2023-06-22T06:40:34.302Z,20.37
2023-06-22T06:43:05.905Z,20.30
2023-06-22T06:45:36.904Z,20.30
2023-06-22T06:48:07.717Z,20.36
2023-06-22T06:50:37.886Z,20.47
2023-06-22T06:53:08.577Z,20.52
2023-06-22T06:55:38.767Z,20.53
2023-06-22T06:58:10.633Z,20.63
2023-06-22T07:00:40.808Z,20.68
2023-06-22T07:03:11.608Z,20.68
2023-06-22T07:05:41.725Z,20.62
2023-06-22T07:08:12.841Z,20.54
2023-06-22T07:10:42.899Z,20.51
2023-06-22T07:13:13.509Z,20.49
2023-06-22T07:15:44.412Z,20.41
2023-06-22T07:18:15.013Z,20.47
2023-06-22T07:20:45.220Z,20.47
2023-06-22T07:23:15.732Z,20.38
2023-06-22T07:25:45.822Z,20.35
2023-06-22T07:28:16.751Z,20.17
2023-06-22T07:30:46.826Z,20.04
2023-06-22T07:33:17.364Z,19.91
2023-06-22T07:35:49.810Z,19.89
2023-06-22T07:38:19.903Z,19.68
2023-06-22T07:40:53.111Z,19.54
2023-06-22T07:43:24.475Z,19.44
2023-06-22T07:45:54.669Z,19.35
2023-06-22T07:48:24.779Z,19.25
2023-06-22T07:50:55.738Z,19.24
2023-06-22T07:53:26.132Z,19.30
2023-06-22T07:55:56.667Z,19.24
2023-06-22T07:58:26.677Z,19.15
2023-06-22T08:00:57.284Z,19.02
2023-06-22T08:03:27.599Z,18.91
2023-06-22T08:05:58.366Z,18.86
2023-06-22T08:08:28.495Z,18.82
2023-06-22T08:10:59.073Z,18.74
2023-06-22T08:13:29.198Z,18.72
2023-06-22T08:15:59.766Z,18.55
2023-06-22T08:18:30.037Z,18.63
2023-06-22T08:21:00.983Z,18.50
2023-06-22T08:23:31.889Z,18.47
2023-06-22T08:26:02.476Z,18.54
2023-06-22T08:28:32.532Z,18.53
2023-06-22T08:31:04.697Z,18.48
2023-06-22T08:33:34.991Z,18.46
2023-06-22T08:36:08.298Z,18.50
2023-06-22T08:38:38.374Z,18.55
2023-06-22T08:41:11.937Z,18.57
2023-06-22T08:43:42.200Z,18.57
2023-06-22T08:46:13.347Z,18.55
2023-06-22T08:48:43.469Z,18.51
2023-06-22T08:51:14.127Z,18.51
2023-06-22T08:53:45.344Z,18.55
2023-06-22T08:56:15.879Z,18.54
2023-06-22T08:58:46.065Z,18.49
2023-06-22T09:01:17.605Z,18.44
2023-06-22T09:03:56.737Z,18.49
2023-06-22T09:06:27.440Z,18.42
2023-06-22T09:08:57.520Z,18.37
2023-06-22T09:11:28.514Z,18.31
2023-06-22T09:13:58.746Z,18.26
2023-06-22T09:16:29.308Z,18.21
2023-06-22T09:18:59.562Z,18.18
2023-06-22T09:21:31.318Z,18.18
2023-06-22T09:24:02.668Z,18.25
2023-06-22T09:26:33.253Z,18.33
2023-06-22T09:29:03.489Z,18.34
2023-06-22T09:31:34.072Z,18.35
2023-06-22T09:34:04.273Z,18.36
2023-06-22T09:36:34.888Z,18.40
2023-06-22T09:39:08.610Z,18.39
2023-06-22T09:41:39.861Z,18.39
2023-06-22T09:44:10.721Z,18.37
2023-06-22T09:46:41.180Z,18.26
2023-06-22T09:49:11.244Z,18.28
2023-06-22T09:51:41.966Z,18.22
2023-06-22T09:54:12.095Z,18.27
2023-06-22T09:56:42.628Z,18.24
2023-06-22T09:59:18.512Z,18.22
2023-06-22T10:01:49.646Z,18.23
2023-06-22T10:04:20.015Z,18.19
2023-06-22T10:06:50.679Z,18.22
2023-06-22T10:09:20.800Z,18.12
2023-06-22T10:11:51.434Z,18.18
2023-06-22T10:14:21.850Z,18.13
2023-06-22T10:16:53.660Z,18.13
2023-06-22T10:19:23.755Z,18.15
2023-06-22T10:21:54.380Z,18.14
2023-06-22T10:24:24.462Z,18.13
2023-06-22T10:26:55.001Z,18.13
2023-06-22T10:29:25.163Z,18.04
2023-06-22T10:31:55.738Z,18.09
2023-06-22T10:34:25.892Z,18.02
2023-06-22T10:36:56.493Z,18.01
2023-06-22T10:39:26.513Z,18.04
2023-06-22T10:41:58.265Z,18.09
2023-06-22T10:44:28.379Z,18.02
2023-06-22T10:46:59.946Z,18.02
2023-06-22T10:49:30.275Z,18.05
2023-06-22T10:52:00.883Z,18.05
2023-06-22T10:54:31.316Z,18.01
2023-06-22T10:57:05.002Z,18.01
2023-06-22T10:59:35.197Z,18.04
2023-06-22T11:02:05.755Z,18.03
2023-06-22T11:04:36.598Z,18.08
2023-06-22T11:07:07.439Z,18.10
2023-06-22T11:09:37.491Z,18.05
2023-06-22T11:12:08.809Z,18.09
2023-06-22T11:14:38.841Z,18.18
2023-06-22T11:17:09.356Z,18.19
2023-06-22T11:19:39.565Z,18.22
2023-06-22T11:22:10.051Z,18.23
2023-06-22T11:24:40.118Z,18.19
2023-06-22T11:27:10.659Z,18.22
2023-06-22T11:29:41.838Z,18.25
2023-06-22T11:32:13.145Z,18.29
2023-06-22T11:34:44.990Z,18.45
2023-06-22T11:37:15.478Z,18.57
2023-06-22T11:39:53.228Z,18.59
2023-06-22T11:42:30.657Z,18.59
2023-06-22T11:45:00.727Z,18.66
2023-06-22T11:47:31.831Z,18.79
2023-06-22T11:50:01.972Z,18.80
2023-06-22T11:52:32.462Z,18.79
2023-06-22T11:55:05.078Z,18.75
2023-06-22T11:57:39.848Z,18.68
2023-06-22T12:00:20.089Z,18.60
2023-06-22T12:02:50.758Z,18.54
2023-06-22T12:05:24.588Z,18.47
2023-06-22T12:07:58.647Z,18.50
2023-06-22T12:10:31.218Z,18.58
2023-06-22T12:13:02.357Z,18.63
2023-06-22T12:15:32.551Z,18.69
2023-06-22T12:18:03.752Z,18.69
2023-06-22T12:20:34.158Z,18.59
2023-06-22T12:23:04.869Z,18.72
2023-06-22T12:25:35.082Z,18.75
2023-06-22T12:28:06.914Z,18.62
2023-06-22T12:30:37.158Z,18.61
2023-06-22T12:33:10.627Z,18.60
2023-06-22T12:35:40.920Z,18.67
2023-06-22T12:38:11.520Z,18.62
2023-06-22T12:40:41.534Z,18.61
2023-06-22T12:43:12.826Z,18.72
2023-06-22T12:45:44.050Z,19.00
2023-06-22T12:48:15.213Z,19.24
2023-06-22T12:50:45.522Z,19.65
2023-06-22T12:53:19.873Z,19.89
2023-06-22T12:55:50.381Z,20.13
2023-06-22T12:58:21.974Z,20.31
2023-06-22T13:00:52.300Z,20.46
2023-06-22T13:03:22.935Z,20.55
2023-06-22T13:05:53.240Z,20.51
2023-06-22T13:08:28.321Z,20.28
2023-06-22T13:11:14.024Z,20.22
2023-06-22T13:13:44.721Z,20.28
2023-06-22T13:16:15.252Z,20.28
2023-06-22T13:18:45.781Z,20.43
2023-06-22T13:21:16.612Z,20.48
2023-06-22T13:23:47.047Z,20.60
2023-06-22T13:26:17.293Z,20.68
2023-06-22T13:28:47.891Z,21.02
2023-06-22T13:31:18.054Z,21.03
2023-06-22T13:33:50.100Z,20.97
2023-06-22T13:36:20.265Z,20.75
2023-06-22T13:38:50.848Z,20.72
2023-06-22T13:41:21.148Z,20.79
2023-06-22T13:43:51.748Z,20.88
2023-06-22T13:46:21.829Z,20.95
2023-06-22T13:48:55.157Z,21.18
2023-06-22T13:51:27.054Z,21.28
2023-06-22T13:53:57.493Z,21.34
2023-06-22T13:56:27.443Z,21.53
2023-06-22T13:58:57.925Z,21.62
2023-06-22T14:01:28.108Z,21.60
2023-06-22T14:03:58.649Z,21.75
2023-06-22T14:06:28.997Z,21.93
2023-06-22T14:08:59.520Z,22.00
2023-06-22T14:11:29.644Z,21.99
2023-06-22T14:14:00.172Z,22.00
2023-06-22T14:16:30.552Z,22.13
2023-06-22T14:19:01.147Z,22.01
2023-06-22T14:21:31.247Z,22.14
2023-06-22T14:24:01.786Z,22.77
2023-06-22T14:26:31.688Z,23.39
2023-06-22T14:29:02.123Z,23.89
2023-06-22T14:31:32.248Z,23.64
2023-06-22T14:34:05.652Z,23.15
2023-06-22T14:36:35.731Z,23.09
2023-06-22T14:39:05.762Z,23.16
2023-06-22T14:41:36.317Z,22.93
2023-06-22T14:44:06.549Z,22.53
2023-06-22T14:46:37.990Z,22.33
2023-06-22T14:49:08.195Z,22.23
2023-06-22T14:51:38.824Z,22.10
2023-06-22T14:54:09.116Z,22.14
2023-06-22T14:56:39.643Z,22.08
2023-06-22T14:59:10.886Z,22.25
2023-06-22T15:01:43.861Z,22.20
2023-06-22T15:04:14.993Z,22.14
2023-06-22T15:06:46.686Z,22.22
2023-06-22T15:09:16.868Z,22.13
2023-06-22T15:11:47.564Z,22.03
2023-06-22T15:14:17.665Z,22.02
2023-06-22T15:16:48.171Z,21.82
2023-06-22T15:19:18.499Z,21.76
2023-06-22T15:21:48.958Z,21.81
2023-06-22T15:24:18.836Z,21.93
2023-06-22T15:26:49.538Z,21.95
2023-06-22T15:29:19.709Z,21.93
2023-06-22T15:31:50.321Z,22.12
2023-06-22T15:34:20.553Z,22.86
2023-06-22T15:36:52.448Z,23.39
2023-06-22T15:39:25.386Z,24.02
2023-06-22T15:41:56.644Z,23.39
2023-06-22T15:44:27.403Z,23.70
2023-06-22T15:46:58.791Z,24.00
2023-06-22T15:49:29.836Z,24.16
2023-06-22T15:52:00.324Z,24.18
2023-06-22T15:54:30.410Z,24.34
2023-06-22T15:57:00.926Z,25.21
2023-06-22T15:59:30.990Z,25.12
2023-06-22T16:02:00.910Z,26.16
2023-06-22T16:04:31.484Z,26.45
2023-06-22T16:07:02.129Z,26.57
2023-06-22T16:09:33.141Z,25.78
2023-06-22T16:12:04.037Z,25.78
2023-06-22T16:14:34.714Z,24.87
2023-06-22T16:17:04.900Z,24.80
2023-06-22T16:19:35.535Z,25.20
2023-06-22T16:22:05.936Z,25.44
2023-06-22T16:24:36.592Z,25.58
2023-06-22T16:27:06.922Z,25.75
2023-06-22T16:29:38.771Z,25.27
2023-06-22T16:32:10.249Z,24.67
2023-06-22T16:34:40.811Z,24.25
2023-06-22T16:37:10.929Z,23.78
2023-06-22T16:39:41.616Z,23.62
2023-06-22T16:42:12.424Z,23.65
2023-06-22T16:44:42.923Z,23.48
2023-06-22T16:47:13.096Z,23.45
2023-06-22T16:49:43.628Z,23.25
2023-06-22T16:52:13.706Z,23.43
2023-06-22T16:57:26.247Z,24.09
2023-06-22T16:59:56.846Z,24.57
2023-06-22T17:02:28.418Z,24.99
2023-06-22T17:04:59.064Z,25.51
2023-06-22T17:07:30.388Z,25.06
2023-06-22T17:10:00.868Z,24.59
2023-06-22T17:12:32.073Z,24.38
2023-06-22T17:15:05.749Z,24.16
2023-06-22T17:17:37.638Z,24.16
2023-06-22T17:20:09.635Z,24.25
2023-06-22T17:22:40.809Z,24.16
2023-06-22T17:25:16.687Z,24.14
2023-06-22T17:27:51.462Z,23.84
2023-06-22T17:30:23.100Z,23.72
2023-06-22T17:32:53.240Z,24.16
2023-06-22T17:35:24.286Z,24.41
2023-06-22T17:37:57.097Z,24.74
2023-06-22T17:40:29.298Z,24.75
2023-06-22T17:43:12.103Z,24.50
2023-06-22T17:45:50.633Z,24.17
2023-06-22T17:48:24.619Z,24.16
2023-06-22T17:50:55.290Z,23.92
2023-06-22T17:53:30.170Z,23.79
2023-06-22T17:56:03.562Z,23.57
2023-06-22T17:58:33.747Z,23.48
2023-06-22T18:01:04.355Z,23.34
2023-06-22T18:03:38.526Z,23.34
2023-06-22T18:06:09.357Z,23.65
2023-06-22T18:08:40.607Z,23.95
2023-06-22T18:11:12.399Z,24.56
2023-06-22T18:13:47.030Z,24.95
2023-06-22T18:16:17.724Z,25.80
2023-06-22T18:18:48.573Z,26.76
2023-06-22T18:21:19.961Z,27.28
2023-06-22T18:23:53.715Z,27.29
2023-06-22T18:26:26.194Z,27.11
2023-06-22T18:28:58.593Z,26.68
2023-06-22T18:31:29.152Z,26.42
2023-06-22T18:34:00.946Z,26.49
2023-06-22T18:36:35.098Z,26.19
2023-06-22T18:39:09.221Z,25.52
2023-06-22T18:41:45.535Z,24.99
2023-06-22T18:44:24.216Z,24.43
2023-06-22T18:46:59.827Z,24.13
2023-06-22T18:49:35.857Z,24.10
2023-06-22T18:52:13.624Z,24.15
2023-06-22T18:54:52.836Z,24.01
2023-06-22T18:57:30.166Z,23.81
2023-06-22T19:00:00.238Z,23.67
2023-06-22T19:02:38.496Z,23.62
2023-06-22T19:05:17.652Z,23.41
2023-06-22T19:07:54.623Z,23.24
2023-06-22T19:10:26.438Z,23.09
2023-06-22T19:12:58.396Z,23.07
2023-06-22T19:15:37.728Z,22.92
2023-06-22T19:18:32.910Z,22.94
2023-06-22T19:21:23.480Z,22.74
2023-06-22T19:23:54.253Z,22.60
2023-06-22T19:26:24.446Z,22.43
2023-06-22T19:28:59.268Z,22.49
2023-06-22T19:31:30.438Z,22.29
2023-06-22T19:34:10.363Z,22.28
2023-06-22T19:36:40.673Z,22.21
2023-06-22T19:39:11.158Z,22.17
2023-06-22T19:41:42.055Z,22.12
2023-06-22T19:44:16.262Z,22.05
2023-06-22T19:46:48.154Z,22.04
2023-06-22T19:49:19.675Z,22.03
2023-06-22T19:51:49.778Z,22.01
2023-06-22T19:54:19.719Z,21.94
2023-06-22T19:56:52.023Z,21.89
2023-06-22T19:59:26.246Z,21.72
2023-06-22T20:01:56.824Z,21.66
2023-06-22T20:04:26.929Z,21.59
2023-06-22T20:07:08.826Z,21.52
2023-06-22T20:09:43.182Z,21.44
2023-06-22T20:12:32.174Z,21.25
2023-06-22T20:15:24.767Z,20.78
2023-06-22T20:18:11.021Z,20.59
2023-06-22T20:20:46.133Z,20.46
2023-06-22T20:23:36.773Z,20.40
2023-06-22T20:26:11.318Z,20.44
2023-06-22T20:28:41.952Z,20.43
2023-06-22T20:31:14.653Z,20.22
2023-06-22T20:33:45.303Z,20.25
2023-06-22T20:36:18.847Z,20.17
2023-06-22T20:38:49.382Z,20.14
2023-06-22T20:41:19.517Z,20.07
2023-06-22T20:43:55.856Z,20.08
2023-06-22T20:46:25.907Z,20.06
2023-06-22T20:48:55.811Z,20.01
2023-06-22T20:51:26.503Z,20.08
2023-06-22T20:53:57.727Z,20.15
2023-06-22T20:56:28.208Z,20.19
2023-06-22T20:58:58.345Z,20.28
2023-06-22T21:01:35.158Z,20.28
2023-06-22T21:04:05.417Z,20.20
2023-06-22T21:06:35.927Z,20.06
2023-06-22T21:09:05.816Z,20.07
2023-06-22T21:11:36.298Z,19.93
2023-06-22T21:14:18.791Z,19.91
2023-06-22T21:16:50.739Z,19.96
2023-06-22T21:19:20.764Z,19.91
2023-06-22T21:21:51.419Z,19.83
2023-06-22T21:24:21.688Z,19.79
2023-06-22T21:26:52.241Z,19.74
2023-06-22T21:29:23.079Z,19.81
2023-06-22T21:31:53.690Z,19.85
2023-06-22T21:34:24.988Z,19.89
2023-06-22T21:36:57.266Z,19.88
2023-06-22T21:39:27.401Z,19.86
2023-06-22T21:41:57.881Z,19.79
2023-06-22T21:44:28.029Z,19.73
2023-06-22T21:46:58.515Z,19.72
2023-06-22T21:49:29.387Z,19.80
2023-06-22T21:52:00.633Z,19.86
2023-06-22T21:54:31.058Z,19.92
2023-06-22T21:57:01.454Z,19.85
2023-06-22T21:59:32.634Z,19.78
2023-06-22T22:02:03.444Z,19.61
2023-06-22T22:04:33.570Z,19.34
2023-06-22T22:07:07.009Z,19.00
2023-06-22T22:09:37.120Z,18.83
2023-06-22T22:12:07.453Z,18.73
2023-06-22T22:14:43.261Z,18.65
2023-06-22T22:17:14.217Z,18.54
2023-06-22T22:19:44.749Z,18.46
2023-06-22T22:22:15.984Z,18.49
2023-06-22T22:24:46.543Z,18.47
2023-06-22T22:27:16.829Z,18.44
2023-06-22T22:29:47.351Z,18.41
2023-06-22T22:32:17.460Z,18.45
2023-06-22T22:34:47.968Z,18.39
2023-06-22T22:37:18.085Z,18.37
2023-06-22T22:39:50.285Z,18.31
2023-06-22T22:42:20.641Z,18.37
2023-06-22T22:44:51.117Z,18.31
2023-06-22T22:47:21.225Z,18.40
2023-06-22T22:49:51.808Z,18.38
2023-06-22T22:52:21.923Z,18.35
2023-06-22T22:54:52.401Z,18.32
2023-06-22T22:57:22.493Z,18.27
2023-06-22T22:59:52.918Z,18.31
2023-06-22T23:02:26.195Z,18.27
2023-06-22T23:04:58.499Z,18.22
2023-06-22T23:07:30.138Z,18.26
2023-06-22T23:10:01.164Z,18.26
2023-06-22T23:12:31.254Z,18.35
2023-06-22T23:15:02.681Z,18.21
2023-06-22T23:17:32.790Z,18.12
2023-06-22T23:20:04.786Z,18.12
2023-06-22T23:22:37.142Z,18.07
2023-06-22T23:25:10.542Z,18.14
2023-06-22T23:27:40.748Z,18.07
2023-06-22T23:30:14.293Z,18.17
2023-06-22T23:32:44.430Z,18.18
2023-06-22T23:35:15.094Z,18.13
2023-06-22T23:37:45.528Z,18.19
2023-06-22T23:40:19.093Z,18.14
2023-06-22T23:42:50.257Z,18.07
2023-06-22T23:45:22.018Z,18.08
2023-06-22T23:47:52.640Z,18.03
2023-06-22T23:50:23.308Z,18.02
2023-06-22T23:52:53.421Z,18.05
2023-06-22T23:55:26.428Z,17.99
2023-06-22T23:57:59.301Z,17.95
